sensor_id;sensor_type;location;lat;lon;timestamp;P1;durP1;ratioP1;P2;durP2;ratioP2
18302;SDS011;9277;37.980;23.748;2022-11-02T00:00:10;6.97;;;2.10;;
18302;SDS011;9277;37.980;23.748;2022-11-02T00:02:37;1.50;;;1.40;;
18302;SDS011;9277;37.980;23.748;2022-11-02T00:05:04;2.05;;;1.63;;
18302;SDS011;9277;37.980;23.748;2022-11-02T00:07:31;5.72;;;1.75;;
18302;SDS011;9277;37.980;23.748;2022-11-02T00:09:57;4.47;;;2.20;;
18302;SDS011;9277;37.980;23.748;2022-11-02T00:12:24;2.00;;;1.67;;
18302;SDS011;9277;37.980;23.748;2022-11-02T00:14:52;2.78;;;1.58;;
18302;SDS011;9277;37.980;23.748;2022-11-02T00:17:19;3.08;;;1.95;;
18302;SDS011;9277;37.980;23.748;2022-11-02T00:19:46;5.10;;;1.60;;
18302;SDS011;9277;37.980;23.748;2022-11-02T00:22:12;2.88;;;2.00;;
18302;SDS011;9277;37.980;23.748;2022-11-02T00:24:39;3.75;;;1.70;;
18302;SDS011;9277;37.980;23.748;2022-11-02T00:27:06;6.30;;;1.95;;
18302;SDS011;9277;37.980;23.748;2022-11-02T00:29:33;4.68;;;1.95;;
18302;SDS011;9277;37.980;23.748;2022-11-02T00:32:01;3.20;;;1.48;;
18302;SDS011;9277;37.980;23.748;2022-11-02T00:34:27;1.85;;;1.50;;
18302;SDS011;9277;37.980;23.748;2022-11-02T00:36:54;4.40;;;1.63;;
18302;SDS011;9277;37.980;23.748;2022-11-02T00:39:21;5.18;;;1.70;;
18302;SDS011;9277;37.980;23.748;2022-11-02T00:41:48;6.93;;;1.95;;
18302;SDS011;9277;37.980;23.748;2022-11-02T00:44:14;2.10;;;1.38;;
18302;SDS011;9277;37.980;23.748;2022-11-02T00:46:41;1.60;;;1.50;;
18302;SDS011;9277;37.980;23.748;2022-11-02T00:49:09;2.70;;;2.30;;
18302;SDS011;9277;37.980;23.748;2022-11-02T00:51:36;2.78;;;1.60;;
18302;SDS011;9277;37.980;23.748;2022-11-02T00:54:03;3.20;;;1.80;;
18302;SDS011;9277;37.980;23.748;2022-11-02T00:56:29;8.57;;;2.00;;
18302;SDS011;9277;37.980;23.748;2022-11-02T00:58:56;4.22;;;1.98;;
18302;SDS011;9277;37.980;23.748;2022-11-02T01:01:23;3.30;;;1.48;;
18302;SDS011;9277;37.980;23.748;2022-11-02T01:03:49;3.67;;;1.75;;
18302;SDS011;9277;37.980;23.748;2022-11-02T01:06:18;3.75;;;1.77;;
18302;SDS011;9277;37.980;23.748;2022-11-02T01:08:45;2.45;;;2.10;;
18302;SDS011;9277;37.980;23.748;2022-11-02T01:11:12;2.25;;;1.90;;
18302;SDS011;9277;37.980;23.748;2022-11-02T01:13:39;2.22;;;1.83;;
18302;SDS011;9277;37.980;23.748;2022-11-02T01:16:06;1.75;;;1.65;;
18302;SDS011;9277;37.980;23.748;2022-11-02T01:18:33;5.15;;;2.25;;
18302;SDS011;9277;37.980;23.748;2022-11-02T01:21:00;4.78;;;1.77;;
18302;SDS011;9277;37.980;23.748;2022-11-02T01:23:29;6.28;;;2.00;;
18302;SDS011;9277;37.980;23.748;2022-11-02T01:25:56;3.17;;;2.13;;
18302;SDS011;9277;37.980;23.748;2022-11-02T01:28:23;2.65;;;2.00;;
18302;SDS011;9277;37.980;23.748;2022-11-02T01:30:49;3.38;;;2.00;;
18302;SDS011;9277;37.980;23.748;2022-11-02T01:33:16;3.13;;;1.67;;
18302;SDS011;9277;37.980;23.748;2022-11-02T01:35:43;2.80;;;1.60;;
18302;SDS011;9277;37.980;23.748;2022-11-02T01:38:10;3.60;;;1.50;;
18302;SDS011;9277;37.980;23.748;2022-11-02T01:40:38;4.72;;;1.80;;
18302;SDS011;9277;37.980;23.748;2022-11-02T01:43:18;4.85;;;1.77;;
18302;SDS011;9277;37.980;23.748;2022-11-02T01:45:45;1.75;;;1.65;;
18302;SDS011;9277;37.980;23.748;2022-11-02T01:48:12;3.85;;;1.75;;
18302;SDS011;9277;37.980;23.748;2022-11-02T01:50:38;2.80;;;2.00;;
18302;SDS011;9277;37.980;23.748;2022-11-02T01:53:06;3.45;;;2.03;;
18302;SDS011;9277;37.980;23.748;2022-11-02T01:55:32;1.48;;;1.38;;
18302;SDS011;9277;37.980;23.748;2022-11-02T01:58:03;3.38;;;1.80;;
18302;SDS011;9277;37.980;23.748;2022-11-02T02:00:30;2.90;;;1.90;;
18302;SDS011;9277;37.980;23.748;2022-11-02T02:02:59;2.92;;;1.58;;
18302;SDS011;9277;37.980;23.748;2022-11-02T02:05:27;3.47;;;1.75;;
18302;SDS011;9277;37.980;23.748;2022-11-02T02:07:55;1.88;;;1.65;;
18302;SDS011;9277;37.980;23.748;2022-11-02T02:10:21;7.85;;;1.80;;
18302;SDS011;9277;37.980;23.748;2022-11-02T02:12:48;1.90;;;1.42;;
18302;SDS011;9277;37.980;23.748;2022-11-02T02:15:17;2.35;;;1.77;;
18302;SDS011;9277;37.980;23.748;2022-11-02T02:17:45;6.47;;;1.83;;
18302;SDS011;9277;37.980;23.748;2022-11-02T02:20:16;6.32;;;2.10;;
18302;SDS011;9277;37.980;23.748;2022-11-02T02:25:36;4.30;;;1.88;;
18302;SDS011;9277;37.980;23.748;2022-11-02T02:28:10;2.42;;;1.80;;
18302;SDS011;9277;37.980;23.748;2022-11-02T02:30:42;2.58;;;1.75;;
18302;SDS011;9277;37.980;23.748;2022-11-02T02:33:10;3.28;;;1.90;;
18302;SDS011;9277;37.980;23.748;2022-11-02T02:35:39;2.28;;;1.58;;
18302;SDS011;9277;37.980;23.748;2022-11-02T02:38:08;3.65;;;1.95;;
18302;SDS011;9277;37.980;23.748;2022-11-02T02:40:37;1.50;;;1.40;;
18302;SDS011;9277;37.980;23.748;2022-11-02T02:43:05;2.25;;;1.80;;
18302;SDS011;9277;37.980;23.748;2022-11-02T02:45:36;3.33;;;1.92;;
18302;SDS011;9277;37.980;23.748;2022-11-02T02:48:05;4.68;;;1.70;;
18302;SDS011;9277;37.980;23.748;2022-11-02T02:50:33;3.72;;;2.20;;
18302;SDS011;9277;37.980;23.748;2022-11-02T02:53:01;1.65;;;1.50;;
18302;SDS011;9277;37.980;23.748;2022-11-02T02:55:30;2.90;;;1.95;;
18302;SDS011;9277;37.980;23.748;2022-11-02T02:57:59;2.05;;;1.60;;
18302;SDS011;9277;37.980;23.748;2022-11-02T03:00:26;3.45;;;1.85;;
18302;SDS011;9277;37.980;23.748;2022-11-02T03:02:54;4.13;;;1.90;;
18302;SDS011;9277;37.980;23.748;2022-11-02T03:05:30;5.32;;;2.05;;
18302;SDS011;9277;37.980;23.748;2022-11-02T03:07:59;4.07;;;2.10;;
18302;SDS011;9277;37.980;23.748;2022-11-02T03:10:28;3.63;;;2.10;;
18302;SDS011;9277;37.980;23.748;2022-11-02T03:12:56;5.60;;;2.20;;
18302;SDS011;9277;37.980;23.748;2022-11-02T03:15:29;5.60;;;2.03;;
18302;SDS011;9277;37.980;23.748;2022-11-02T03:18:04;3.80;;;1.88;;
18302;SDS011;9277;37.980;23.748;2022-11-02T03:20:37;7.72;;;1.98;;
18302;SDS011;9277;37.980;23.748;2022-11-02T03:23:07;1.67;;;1.58;;
18302;SDS011;9277;37.980;23.748;2022-11-02T03:25:38;7.30;;;2.30;;
18302;SDS011;9277;37.980;23.748;2022-11-02T03:28:09;2.90;;;2.03;;
18302;SDS011;9277;37.980;23.748;2022-11-02T03:30:38;1.98;;;1.80;;
18302;SDS011;9277;37.980;23.748;2022-11-02T03:33:12;6.50;;;2.03;;
18302;SDS011;9277;37.980;23.748;2022-11-02T03:35:42;4.20;;;2.45;;
18302;SDS011;9277;37.980;23.748;2022-11-02T03:38:11;4.00;;;2.13;;
18302;SDS011;9277;37.980;23.748;2022-11-02T03:40:40;4.07;;;2.00;;
18302;SDS011;9277;37.980;23.748;2022-11-02T03:43:08;8.20;;;2.50;;
18302;SDS011;9277;37.980;23.748;2022-11-02T03:45:35;3.05;;;1.83;;
18302;SDS011;9277;37.980;23.748;2022-11-02T03:48:04;2.95;;;2.05;;
18302;SDS011;9277;37.980;23.748;2022-11-02T03:50:33;7.78;;;1.92;;
18302;SDS011;9277;37.980;23.748;2022-11-02T03:53:02;2.45;;;1.70;;
18302;SDS011;9277;37.980;23.748;2022-11-02T03:55:32;3.38;;;2.45;;
18302;SDS011;9277;37.980;23.748;2022-11-02T03:57:59;5.97;;;2.20;;
18302;SDS011;9277;37.980;23.748;2022-11-02T04:00:27;2.88;;;1.83;;
18302;SDS011;9277;37.980;23.748;2022-11-02T04:02:56;3.42;;;2.05;;
18302;SDS011;9277;37.980;23.748;2022-11-02T04:05:26;7.50;;;2.03;;
18302;SDS011;9277;37.980;23.748;2022-11-02T04:07:54;3.47;;;2.15;;
18302;SDS011;9277;37.980;23.748;2022-11-02T04:10:38;5.07;;;2.33;;
18302;SDS011;9277;37.980;23.748;2022-11-02T04:13:25;2.95;;;1.92;;
18302;SDS011;9277;37.980;23.748;2022-11-02T04:16:09;6.70;;;2.40;;
18302;SDS011;9277;37.980;23.748;2022-11-02T04:18:36;5.20;;;2.45;;
18302;SDS011;9277;37.980;23.748;2022-11-02T04:21:20;2.78;;;2.40;;
18302;SDS011;9277;37.980;23.748;2022-11-02T04:23:48;3.83;;;2.05;;
18302;SDS011;9277;37.980;23.748;2022-11-02T04:26:32;4.78;;;2.10;;
18302;SDS011;9277;37.980;23.748;2022-11-02T04:28:58;7.65;;;2.50;;
18302;SDS011;9277;37.980;23.748;2022-11-02T04:31:25;5.47;;;2.80;;
18302;SDS011;9277;37.980;23.748;2022-11-02T04:33:52;6.68;;;2.90;;
18302;SDS011;9277;37.980;23.748;2022-11-02T04:36:18;4.05;;;2.40;;
18302;SDS011;9277;37.980;23.748;2022-11-02T04:38:44;4.28;;;2.55;;
18302;SDS011;9277;37.980;23.748;2022-11-02T04:41:13;3.35;;;2.13;;
18302;SDS011;9277;37.980;23.748;2022-11-02T04:43:57;5.18;;;2.53;;
18302;SDS011;9277;37.980;23.748;2022-11-02T04:46:25;5.75;;;2.72;;
18302;SDS011;9277;37.980;23.748;2022-11-02T04:48:52;10.45;;;2.40;;
18302;SDS011;9277;37.980;23.748;2022-11-02T04:51:19;5.45;;;2.33;;
18302;SDS011;9277;37.980;23.748;2022-11-02T04:53:46;7.97;;;3.10;;
18302;SDS011;9277;37.980;23.748;2022-11-02T04:56:15;6.50;;;2.72;;
18302;SDS011;9277;37.980;23.748;2022-11-02T04:58:42;9.45;;;3.00;;
18302;SDS011;9277;37.980;23.748;2022-11-02T05:01:10;5.68;;;2.20;;
18302;SDS011;9277;37.980;23.748;2022-11-02T05:03:37;2.28;;;2.03;;
18302;SDS011;9277;37.980;23.748;2022-11-02T05:06:04;4.60;;;3.05;;
18302;SDS011;9277;37.980;23.748;2022-11-02T05:08:31;4.55;;;2.47;;
18302;SDS011;9277;37.980;23.748;2022-11-02T05:10:58;9.65;;;2.85;;
18302;SDS011;9277;37.980;23.748;2022-11-02T05:13:26;5.00;;;2.45;;
18302;SDS011;9277;37.980;23.748;2022-11-02T05:15:54;5.78;;;2.28;;
18302;SDS011;9277;37.980;23.748;2022-11-02T05:18:21;7.63;;;2.75;;
18302;SDS011;9277;37.980;23.748;2022-11-02T05:20:48;7.28;;;3.00;;
18302;SDS011;9277;37.980;23.748;2022-11-02T05:23:15;15.27;;;3.47;;
18302;SDS011;9277;37.980;23.748;2022-11-02T05:25:42;20.17;;;3.55;;
18302;SDS011;9277;37.980;23.748;2022-11-02T05:28:09;9.00;;;2.95;;
18302;SDS011;9277;37.980;23.748;2022-11-02T05:30:38;5.55;;;3.03;;
18302;SDS011;9277;37.980;23.748;2022-11-02T05:33:04;39.13;;;5.60;;
18302;SDS011;9277;37.980;23.748;2022-11-02T05:35:31;26.83;;;4.13;;
18302;SDS011;9277;37.980;23.748;2022-11-02T05:37:58;32.00;;;5.00;;
18302;SDS011;9277;37.980;23.748;2022-11-02T05:40:24;19.05;;;4.15;;
18302;SDS011;9277;37.980;23.748;2022-11-02T05:42:53;12.07;;;3.55;;
18302;SDS011;9277;37.980;23.748;2022-11-02T05:45:23;8.52;;;3.03;;
18302;SDS011;9277;37.980;23.748;2022-11-02T05:47:51;5.57;;;2.67;;
18302;SDS011;9277;37.980;23.748;2022-11-02T05:50:18;6.03;;;3.10;;
18302;SDS011;9277;37.980;23.748;2022-11-02T05:52:45;7.13;;;2.97;;
18302;SDS011;9277;37.980;23.748;2022-11-02T05:55:12;5.78;;;2.72;;
18302;SDS011;9277;37.980;23.748;2022-11-02T05:57:39;9.52;;;3.08;;
18302;SDS011;9277;37.980;23.748;2022-11-02T06:00:06;18.50;;;4.03;;
18302;SDS011;9277;37.980;23.748;2022-11-02T06:02:33;5.93;;;3.33;;
18302;SDS011;9277;37.980;23.748;2022-11-02T06:05:01;8.13;;;3.42;;
18302;SDS011;9277;37.980;23.748;2022-11-02T06:07:28;6.43;;;3.33;;
18302;SDS011;9277;37.980;23.748;2022-11-02T06:09:55;4.30;;;2.92;;
18302;SDS011;9277;37.980;23.748;2022-11-02T06:12:21;10.40;;;4.10;;
18302;SDS011;9277;37.980;23.748;2022-11-02T06:14:48;10.82;;;4.63;;
18302;SDS011;9277;37.980;23.748;2022-11-02T06:17:15;10.82;;;4.20;;
18302;SDS011;9277;37.980;23.748;2022-11-02T06:19:42;13.02;;;3.90;;
18302;SDS011;9277;37.980;23.748;2022-11-02T06:22:10;19.48;;;5.38;;
18302;SDS011;9277;37.980;23.748;2022-11-02T06:24:36;15.30;;;4.53;;
18302;SDS011;9277;37.980;23.748;2022-11-02T06:27:03;14.18;;;4.63;;
18302;SDS011;9277;37.980;23.748;2022-11-02T06:29:30;14.75;;;3.80;;
18302;SDS011;9277;37.980;23.748;2022-11-02T06:31:57;7.40;;;4.07;;
18302;SDS011;9277;37.980;23.748;2022-11-02T06:34:24;10.55;;;4.20;;
18302;SDS011;9277;37.980;23.748;2022-11-02T06:36:51;17.30;;;4.25;;
18302;SDS011;9277;37.980;23.748;2022-11-02T06:39:19;9.07;;;4.30;;
18302;SDS011;9277;37.980;23.748;2022-11-02T06:41:47;9.50;;;4.07;;
18302;SDS011;9277;37.980;23.748;2022-11-02T06:44:13;9.45;;;4.15;;
18302;SDS011;9277;37.980;23.748;2022-11-02T06:46:40;11.10;;;4.18;;
18302;SDS011;9277;37.980;23.748;2022-11-02T06:49:07;10.15;;;4.43;;
18302;SDS011;9277;37.980;23.748;2022-11-02T06:51:33;13.63;;;4.70;;
18302;SDS011;9277;37.980;23.748;2022-11-02T06:54:00;9.73;;;4.10;;
18302;SDS011;9277;37.980;23.748;2022-11-02T06:56:28;10.95;;;4.38;;
18302;SDS011;9277;37.980;23.748;2022-11-02T06:58:55;11.32;;;4.32;;
18302;SDS011;9277;37.980;23.748;2022-11-02T07:01:22;8.48;;;4.45;;
18302;SDS011;9277;37.980;23.748;2022-11-02T07:03:49;9.85;;;4.72;;
18302;SDS011;9277;37.980;23.748;2022-11-02T07:06:16;10.05;;;3.50;;
18302;SDS011;9277;37.980;23.748;2022-11-02T07:08:42;6.97;;;3.40;;
18302;SDS011;9277;37.980;23.748;2022-11-02T07:11:11;14.40;;;3.78;;
18302;SDS011;9277;37.980;23.748;2022-11-02T07:13:40;5.90;;;3.20;;
18302;SDS011;9277;37.980;23.748;2022-11-02T07:16:07;5.28;;;3.63;;
18302;SDS011;9277;37.980;23.748;2022-11-02T07:18:33;11.02;;;3.20;;
18302;SDS011;9277;37.980;23.748;2022-11-02T07:21:00;8.57;;;3.15;;
18302;SDS011;9277;37.980;23.748;2022-11-02T07:23:27;6.20;;;3.03;;
18302;SDS011;9277;37.980;23.748;2022-11-02T07:25:53;8.15;;;2.88;;
18302;SDS011;9277;37.980;23.748;2022-11-02T07:28:20;12.52;;;3.28;;
18302;SDS011;9277;37.980;23.748;2022-11-02T07:30:52;3.63;;;2.75;;
18302;SDS011;9277;37.980;23.748;2022-11-02T07:33:19;4.85;;;3.08;;
18302;SDS011;9277;37.980;23.748;2022-11-02T07:35:45;3.83;;;2.60;;
18302;SDS011;9277;37.980;23.748;2022-11-02T07:38:14;4.55;;;2.95;;
18302;SDS011;9277;37.980;23.748;2022-11-02T07:40:41;5.47;;;2.97;;
18302;SDS011;9277;37.980;23.748;2022-11-02T07:43:08;7.80;;;2.95;;
18302;SDS011;9277;37.980;23.748;2022-11-02T07:45:35;12.60;;;3.33;;
18302;SDS011;9277;37.980;23.748;2022-11-02T07:48:03;7.43;;;3.47;;
18302;SDS011;9277;37.980;23.748;2022-11-02T07:50:30;9.27;;;3.20;;
18302;SDS011;9277;37.980;23.748;2022-11-02T07:52:57;5.30;;;3.05;;
18302;SDS011;9277;37.980;23.748;2022-11-02T07:55:25;13.80;;;3.10;;
18302;SDS011;9277;37.980;23.748;2022-11-02T07:57:52;9.57;;;3.30;;
18302;SDS011;9277;37.980;23.748;2022-11-02T08:00:19;4.50;;;3.20;;
18302;SDS011;9277;37.980;23.748;2022-11-02T08:02:46;11.98;;;3.35;;
18302;SDS011;9277;37.980;23.748;2022-11-02T08:05:14;8.88;;;3.63;;
18302;SDS011;9277;37.980;23.748;2022-11-02T08:07:41;6.80;;;3.30;;
18302;SDS011;9277;37.980;23.748;2022-11-02T08:10:08;6.15;;;3.30;;
18302;SDS011;9277;37.980;23.748;2022-11-02T08:12:35;12.82;;;3.83;;
18302;SDS011;9277;37.980;23.748;2022-11-02T08:15:01;7.63;;;3.50;;
18302;SDS011;9277;37.980;23.748;2022-11-02T08:17:29;7.97;;;3.65;;
18302;SDS011;9277;37.980;23.748;2022-11-02T08:19:56;8.80;;;3.90;;
18302;SDS011;9277;37.980;23.748;2022-11-02T08:22:25;11.10;;;4.18;;
18302;SDS011;9277;37.980;23.748;2022-11-02T08:24:52;8.73;;;4.43;;
18302;SDS011;9277;37.980;23.748;2022-11-02T08:27:19;10.57;;;3.97;;
18302;SDS011;9277;37.980;23.748;2022-11-02T08:29:46;10.63;;;3.90;;
18302;SDS011;9277;37.980;23.748;2022-11-02T08:32:14;12.80;;;4.55;;
18302;SDS011;9277;37.980;23.748;2022-11-02T08:34:41;6.75;;;3.60;;
18302;SDS011;9277;37.980;23.748;2022-11-02T08:37:07;9.38;;;3.90;;
18302;SDS011;9277;37.980;23.748;2022-11-02T08:39:35;9.05;;;4.43;;
18302;SDS011;9277;37.980;23.748;2022-11-02T08:42:02;12.43;;;4.63;;
18302;SDS011;9277;37.980;23.748;2022-11-02T08:44:29;9.60;;;4.93;;
18302;SDS011;9277;37.980;23.748;2022-11-02T08:46:56;14.10;;;4.65;;
18302;SDS011;9277;37.980;23.748;2022-11-02T08:49:23;11.40;;;4.05;;
18302;SDS011;9277;37.980;23.748;2022-11-02T08:51:49;7.05;;;4.20;;
18302;SDS011;9277;37.980;23.748;2022-11-02T08:54:16;8.20;;;4.25;;
18302;SDS011;9277;37.980;23.748;2022-11-02T08:56:44;5.80;;;3.70;;
18302;SDS011;9277;37.980;23.748;2022-11-02T08:59:11;8.10;;;4.85;;
18302;SDS011;9277;37.980;23.748;2022-11-02T09:01:38;11.02;;;5.28;;
18302;SDS011;9277;37.980;23.748;2022-11-02T09:04:05;7.28;;;4.40;;
18302;SDS011;9277;37.980;23.748;2022-11-02T09:06:31;18.48;;;5.32;;
18302;SDS011;9277;37.980;23.748;2022-11-02T09:08:58;11.27;;;4.55;;
18302;SDS011;9277;37.980;23.748;2022-11-02T09:11:25;11.95;;;4.82;;
18302;SDS011;9277;37.980;23.748;2022-11-02T09:13:53;8.32;;;4.75;;
18302;SDS011;9277;37.980;23.748;2022-11-02T09:16:20;8.25;;;4.22;;
18302;SDS011;9277;37.980;23.748;2022-11-02T09:18:47;5.88;;;3.78;;
18302;SDS011;9277;37.980;23.748;2022-11-02T09:21:14;10.57;;;3.92;;
18302;SDS011;9277;37.980;23.748;2022-11-02T09:23:41;9.60;;;4.45;;
18302;SDS011;9277;37.980;23.748;2022-11-02T09:26:12;10.45;;;4.40;;
18302;SDS011;9277;37.980;23.748;2022-11-02T09:28:39;11.25;;;4.63;;
18302;SDS011;9277;37.980;23.748;2022-11-02T09:31:08;19.75;;;5.50;;
18302;SDS011;9277;37.980;23.748;2022-11-02T09:33:35;12.75;;;5.00;;
18302;SDS011;9277;37.980;23.748;2022-11-02T09:36:02;6.97;;;4.28;;
18302;SDS011;9277;37.980;23.748;2022-11-02T09:38:29;9.25;;;4.65;;
18302;SDS011;9277;37.980;23.748;2022-11-02T09:41:00;11.40;;;4.32;;
18302;SDS011;9277;37.980;23.748;2022-11-02T09:43:32;8.88;;;4.60;;
18302;SDS011;9277;37.980;23.748;2022-11-02T09:46:04;10.23;;;4.38;;
18302;SDS011;9277;37.980;23.748;2022-11-02T09:48:34;6.35;;;4.10;;
18302;SDS011;9277;37.980;23.748;2022-11-02T09:51:03;14.45;;;5.53;;
18302;SDS011;9277;37.980;23.748;2022-11-02T09:53:35;13.52;;;4.43;;
18302;SDS011;9277;37.980;23.748;2022-11-02T09:56:05;8.48;;;4.32;;
18302;SDS011;9277;37.980;23.748;2022-11-02T09:58:34;9.73;;;4.25;;
18302;SDS011;9277;37.980;23.748;2022-11-02T10:01:04;10.85;;;3.90;;
18302;SDS011;9277;37.980;23.748;2022-11-02T10:03:38;11.43;;;4.15;;
18302;SDS011;9277;37.980;23.748;2022-11-02T10:06:09;9.52;;;3.85;;
18302;SDS011;9277;37.980;23.748;2022-11-02T10:08:40;9.98;;;4.60;;
18302;SDS011;9277;37.980;23.748;2022-11-02T10:11:17;7.93;;;3.80;;
18302;SDS011;9277;37.980;23.748;2022-11-02T10:13:48;10.25;;;5.15;;
18302;SDS011;9277;37.980;23.748;2022-11-02T10:16:18;15.40;;;4.18;;
18302;SDS011;9277;37.980;23.748;2022-11-02T10:18:47;9.27;;;3.83;;
18302;SDS011;9277;37.980;23.748;2022-11-02T10:21:15;6.90;;;4.10;;
18302;SDS011;9277;37.980;23.748;2022-11-02T10:23:46;10.85;;;4.10;;
18302;SDS011;9277;37.980;23.748;2022-11-02T10:26:14;11.00;;;4.20;;
18302;SDS011;9277;37.980;23.748;2022-11-02T10:28:44;9.30;;;4.13;;
18302;SDS011;9277;37.980;23.748;2022-11-02T10:31:14;14.05;;;4.22;;
18302;SDS011;9277;37.980;23.748;2022-11-02T10:33:43;15.15;;;4.93;;
18302;SDS011;9277;37.980;23.748;2022-11-02T10:36:15;11.38;;;4.70;;
18302;SDS011;9277;37.980;23.748;2022-11-02T10:38:47;14.68;;;4.53;;
18302;SDS011;9277;37.980;23.748;2022-11-02T10:41:22;14.27;;;4.57;;
18302;SDS011;9277;37.980;23.748;2022-11-02T10:43:57;14.40;;;4.80;;
18302;SDS011;9277;37.980;23.748;2022-11-02T10:46:29;8.15;;;4.35;;
18302;SDS011;9277;37.980;23.748;2022-11-02T10:49:00;10.45;;;4.63;;
18302;SDS011;9277;37.980;23.748;2022-11-02T10:51:29;8.95;;;4.07;;
18302;SDS011;9277;37.980;23.748;2022-11-02T10:53:56;12.98;;;4.18;;
18302;SDS011;9277;37.980;23.748;2022-11-02T10:56:24;5.78;;;4.00;;
18302;SDS011;9277;37.980;23.748;2022-11-02T10:58:56;10.98;;;4.53;;
18302;SDS011;9277;37.980;23.748;2022-11-02T11:01:26;12.05;;;4.47;;
18302;SDS011;9277;37.980;23.748;2022-11-02T11:03:56;9.70;;;3.90;;
18302;SDS011;9277;37.980;23.748;2022-11-02T11:06:24;8.80;;;4.80;;
18302;SDS011;9277;37.980;23.748;2022-11-02T11:08:56;7.20;;;3.83;;
18302;SDS011;9277;37.980;23.748;2022-11-02T11:11:24;11.05;;;3.58;;
18302;SDS011;9277;37.980;23.748;2022-11-02T11:13:53;14.05;;;4.20;;
18302;SDS011;9277;37.980;23.748;2022-11-02T11:16:30;11.23;;;4.20;;
18302;SDS011;9277;37.980;23.748;2022-11-02T11:18:59;8.85;;;4.03;;
18302;SDS011;9277;37.980;23.748;2022-11-02T11:21:34;7.30;;;4.63;;
18302;SDS011;9277;37.980;23.748;2022-11-02T11:24:12;7.45;;;3.70;;
18302;SDS011;9277;37.980;23.748;2022-11-02T11:26:44;12.75;;;4.55;;
18302;SDS011;9277;37.980;23.748;2022-11-02T11:29:19;7.20;;;3.88;;
18302;SDS011;9277;37.980;23.748;2022-11-02T11:31:46;8.90;;;4.18;;
18302;SDS011;9277;37.980;23.748;2022-11-02T11:34:19;12.23;;;4.55;;
18302;SDS011;9277;37.980;23.748;2022-11-02T11:36:48;6.85;;;3.78;;
18302;SDS011;9277;37.980;23.748;2022-11-02T11:39:21;8.60;;;4.43;;
18302;SDS011;9277;37.980;23.748;2022-11-02T11:41:49;13.35;;;4.03;;
18302;SDS011;9277;37.980;23.748;2022-11-02T11:44:18;10.20;;;5.45;;
18302;SDS011;9277;37.980;23.748;2022-11-02T11:46:46;5.07;;;3.30;;
18302;SDS011;9277;37.980;23.748;2022-11-02T11:49:19;10.75;;;4.35;;
18302;SDS011;9277;37.980;23.748;2022-11-02T11:51:47;13.82;;;4.50;;
18302;SDS011;9277;37.980;23.748;2022-11-02T11:54:17;12.18;;;4.35;;
18302;SDS011;9277;37.980;23.748;2022-11-02T11:56:46;9.77;;;4.78;;
18302;SDS011;9277;37.980;23.748;2022-11-02T11:59:20;12.63;;;5.80;;
18302;SDS011;9277;37.980;23.748;2022-11-02T12:01:48;13.95;;;4.57;;
18302;SDS011;9277;37.980;23.748;2022-11-02T12:04:25;9.50;;;4.20;;
18302;SDS011;9277;37.980;23.748;2022-11-02T12:06:52;9.18;;;4.28;;
18302;SDS011;9277;37.980;23.748;2022-11-02T12:09:22;10.43;;;3.75;;
18302;SDS011;9277;37.980;23.748;2022-11-02T12:11:56;11.48;;;4.53;;
18302;SDS011;9277;37.980;23.748;2022-11-02T12:14:37;9.30;;;4.03;;
18302;SDS011;9277;37.980;23.748;2022-11-02T12:17:10;6.72;;;3.90;;
18302;SDS011;9277;37.980;23.748;2022-11-02T12:19:47;5.25;;;3.40;;
18302;SDS011;9277;37.980;23.748;2022-11-02T12:22:17;5.93;;;3.38;;
18302;SDS011;9277;37.980;23.748;2022-11-02T12:24:55;9.02;;;4.22;;
18302;SDS011;9277;37.980;23.748;2022-11-02T12:27:29;6.47;;;3.47;;
18302;SDS011;9277;37.980;23.748;2022-11-02T12:30:01;6.85;;;3.80;;
18302;SDS011;9277;37.980;23.748;2022-11-02T12:35:18;3.60;;;2.75;;
18302;SDS011;9277;37.980;23.748;2022-11-02T12:37:54;7.00;;;3.63;;
18302;SDS011;9277;37.980;23.748;2022-11-02T12:40:24;8.43;;;3.75;;
18302;SDS011;9277;37.980;23.748;2022-11-02T12:42:56;7.78;;;4.72;;
18302;SDS011;9277;37.980;23.748;2022-11-02T12:45:30;7.28;;;3.53;;
18302;SDS011;9277;37.980;23.748;2022-11-02T12:48:02;9.27;;;3.88;;
18302;SDS011;9277;37.980;23.748;2022-11-02T12:50:33;7.63;;;3.42;;
18302;SDS011;9277;37.980;23.748;2022-11-02T12:53:06;7.18;;;3.60;;
18302;SDS011;9277;37.980;23.748;2022-11-02T12:55:37;7.80;;;3.30;;
18302;SDS011;9277;37.980;23.748;2022-11-02T12:58:19;8.68;;;3.00;;
18302;SDS011;9277;37.980;23.748;2022-11-02T13:00:47;7.22;;;3.55;;
18302;SDS011;9277;37.980;23.748;2022-11-02T13:03:18;6.88;;;3.28;;
18302;SDS011;9277;37.980;23.748;2022-11-02T13:05:49;7.30;;;3.80;;
18302;SDS011;9277;37.980;23.748;2022-11-02T13:08:18;6.65;;;3.72;;
18302;SDS011;9277;37.980;23.748;2022-11-02T13:10:47;8.18;;;3.33;;
18302;SDS011;9277;37.980;23.748;2022-11-02T13:13:19;4.47;;;3.13;;
18302;SDS011;9277;37.980;23.748;2022-11-02T13:15:47;7.30;;;3.33;;
18302;SDS011;9277;37.980;23.748;2022-11-02T13:18:15;5.80;;;3.15;;
18302;SDS011;9277;37.980;23.748;2022-11-02T13:20:43;9.43;;;3.53;;
18302;SDS011;9277;37.980;23.748;2022-11-02T13:23:14;10.38;;;3.50;;
18302;SDS011;9277;37.980;23.748;2022-11-02T13:25:43;6.60;;;3.40;;
18302;SDS011;9277;37.980;23.748;2022-11-02T13:28:15;5.00;;;3.20;;
18302;SDS011;9277;37.980;23.748;2022-11-02T13:30:45;7.07;;;3.47;;
18302;SDS011;9277;37.980;23.748;2022-11-02T13:33:13;9.50;;;3.47;;
18302;SDS011;9277;37.980;23.748;2022-11-02T13:35:42;5.35;;;2.92;;
18302;SDS011;9277;37.980;23.748;2022-11-02T13:38:13;7.32;;;3.80;;
18302;SDS011;9277;37.980;23.748;2022-11-02T13:40:46;9.77;;;3.08;;
18302;SDS011;9277;37.980;23.748;2022-11-02T13:43:18;6.18;;;3.40;;
18302;SDS011;9277;37.980;23.748;2022-11-02T13:48:48;6.30;;;3.17;;
18302;SDS011;9277;37.980;23.748;2022-11-02T13:51:19;6.88;;;3.38;;
18302;SDS011;9277;37.980;23.748;2022-11-02T13:53:50;7.53;;;3.05;;
18302;SDS011;9277;37.980;23.748;2022-11-02T13:56:21;6.22;;;3.25;;
18302;SDS011;9277;37.980;23.748;2022-11-02T13:58:52;9.90;;;3.13;;
18302;SDS011;9277;37.980;23.748;2022-11-02T14:01:20;4.65;;;2.55;;
18302;SDS011;9277;37.980;23.748;2022-11-02T14:03:49;6.78;;;2.60;;
18302;SDS011;9277;37.980;23.748;2022-11-02T14:06:18;4.72;;;2.95;;
18302;SDS011;9277;37.980;23.748;2022-11-02T14:08:47;8.18;;;3.40;;
18302;SDS011;9277;37.980;23.748;2022-11-02T14:11:26;6.85;;;3.03;;
18302;SDS011;9277;37.980;23.748;2022-11-02T14:19:52;5.15;;;2.78;;
18302;SDS011;9277;37.980;23.748;2022-11-02T14:22:19;5.57;;;3.10;;
18302;SDS011;9277;37.980;23.748;2022-11-02T14:27:31;8.43;;;3.05;;
18302;SDS011;9277;37.980;23.748;2022-11-02T14:29:59;7.78;;;3.00;;
18302;SDS011;9277;37.980;23.748;2022-11-02T14:32:31;8.88;;;3.08;;
18302;SDS011;9277;37.980;23.748;2022-11-02T14:35:15;2.78;;;2.50;;
18302;SDS011;9277;37.980;23.748;2022-11-02T14:37:50;6.07;;;2.83;;
18302;SDS011;9277;37.980;23.748;2022-11-02T14:40:24;6.30;;;3.40;;
18302;SDS011;9277;37.980;23.748;2022-11-02T14:43:15;4.32;;;2.50;;
18302;SDS011;9277;37.980;23.748;2022-11-02T14:45:56;5.70;;;3.17;;
18302;SDS011;9277;37.980;23.748;2022-11-02T14:48:28;14.90;;;3.70;;
18302;SDS011;9277;37.980;23.748;2022-11-02T14:50:58;4.20;;;2.85;;
18302;SDS011;9277;37.980;23.748;2022-11-02T14:53:26;6.32;;;2.83;;
18302;SDS011;9277;37.980;23.748;2022-11-02T14:55:54;8.32;;;3.80;;
18302;SDS011;9277;37.980;23.748;2022-11-02T14:58:22;10.05;;;3.08;;
18302;SDS011;9277;37.980;23.748;2022-11-02T15:00:54;3.30;;;2.78;;
18302;SDS011;9277;37.980;23.748;2022-11-02T15:03:27;6.95;;;2.83;;
18302;SDS011;9277;37.980;23.748;2022-11-02T15:05:59;7.35;;;3.35;;
18302;SDS011;9277;37.980;23.748;2022-11-02T15:08:27;7.75;;;3.17;;
18302;SDS011;9277;37.980;23.748;2022-11-02T15:10:55;5.00;;;3.40;;
18302;SDS011;9277;37.980;23.748;2022-11-02T15:13:25;6.85;;;3.15;;